Time;durP1;ratioP1;P1;durP2;ratioP2;P2;SDS_P1;SDS_P2;PMS_P1;PMS_P2;Temp;Humidity;BMP_temperature;BMP_pressure;BME280_temperature;BME280_humidity;BME280_pressure;Samples;Min_cycle;Max_cycle;Signal;HPM_P1;HPM_P2
2022/01/20 00:20:40;;;;;;;23.73;10.80;;;;;;;-7.78;100.00;95663.22;5068793;28;20044;-48
2022/01/20 00:26:13;;;;;;;19.77;9.07;;;;;;;-7.91;100.00;95663.19;5067316;28;20051;-48
2022/01/20 00:33:49;;;;;;;22.33;11.20;;;;;;;-7.94;100.00;95659.16;5066702;28;20044;-48
2022/01/20 00:38:43;;;;;;;13.40;6.78;;;;;;;-7.92;100.00;95642.16;5068653;28;20055;-47
2022/01/20 00:41:15;;;;;;;20.23;9.80;;;;;;;-7.94;100.00;95644.00;5071117;28;20052;-48
2022/01/20 00:43:42;;;;;;;24.25;11.45;;;;;;;-8.09;100.00;95639.88;5065325;28;20577;-48
2022/01/20 00:46:10;;;;;;;19.42;11.23;;;;;;;-7.96;100.00;95635.69;5066777;28;20052;-46
2022/01/20 00:48:37;;;;;;;16.48;8.63;;;;;;;-8.00;100.00;95639.31;5067702;28;20098;-48
2022/01/20 00:51:05;;;;;;;16.77;9.80;;;;;;;-7.97;100.00;95644.19;5075382;28;20559;-48
2022/01/20 00:53:32;;;;;;;17.20;8.93;;;;;;;-8.00;100.00;95634.25;5073889;28;20509;-47
2022/01/20 00:55:59;;;;;;;26.20;11.80;;;;;;;-8.05;100.00;95640.50;5070835;28;20043;-47
2022/01/20 00:58:26;;;;;;;18.00;8.45;;;;;;;-8.02;100.00;95641.13;5066743;28;20048;-51
2022/01/20 01:00:53;;;;;;;18.67;9.40;;;;;;;-8.04;100.00;95642.94;5067283;28;20052;-48
2022/01/20 01:03:21;;;;;;;11.90;6.53;;;;;;;-8.14;100.00;95631.78;5066076;28;20052;-47
2022/01/20 01:06:37;;;;;;;18.55;7.95;;;;;;;-8.15;100.00;95640.28;5075653;28;20036;-47
2022/01/20 01:08:39;;;;;;;19.13;7.70;;;;;;;-8.29;100.00;95631.03;5062371;28;20057;-48
2022/01/20 01:11:06;;;;;;;15.55;7.82;;;;;;;-8.22;100.00;95634.00;5067776;28;20041;-49
2022/01/20 01:13:33;;;;;;;15.05;9.73;;;;;;;-8.22;100.00;95623.88;5066796;28;20139;-49
2022/01/20 01:16:00;;;;;;;20.10;8.40;;;;;;;-8.26;100.00;95624.06;5071847;28;20028;-50
2022/01/20 01:21:26;;;;;;;19.67;9.35;;;;;;;-8.18;100.00;95622.78;5066995;28;20416;-47
2022/01/20 01:23:53;;;;;;;16.23;7.93;;;;;;;-8.26;100.00;95618.22;5067863;28;20131;-50
2022/01/20 01:26:22;;;;;;;15.60;7.95;;;;;;;-8.34;100.00;95606.03;5069522;28;20050;-48
2022/01/20 01:28:50;;;;;;;19.95;9.27;;;;;;;-8.41;100.00;95609.84;5069709;28;20040;-48
2022/01/20 01:31:40;;;;;;;12.10;8.10;;;;;;;-8.49;100.00;95596.94;5078741;28;20051;-47
2022/01/20 01:34:09;;;;;;;10.50;5.50;;;;;;;-8.45;100.00;95595.81;5067182;28;20471;-49
2022/01/20 01:37:35;;;;;;;17.92;8.90;;;;;;;-8.47;100.00;95600.16;5066256;28;20076;-48
2022/01/20 01:39:26;;;;;;;13.48;8.05;;;;;;;-8.53;100.00;95595.50;5060755;28;20511;-48
2022/01/20 01:41:56;;;;;;;13.70;5.18;;;;;;;-8.51;100.00;95589.44;5079061;28;20429;-48
2022/01/20 01:44:27;;;;;;;13.40;6.50;;;;;;;-8.50;100.00;95590.25;5075669;28;20075;-51
2022/01/20 01:46:58;;;;;;;11.20;7.50;;;;;;;-8.60;100.00;95589.22;5077078;28;20433;-48
2022/01/20 01:49:26;;;;;;;11.32;7.28;;;;;;;-8.67;100.00;95584.53;5070960;28;20040;-48
2022/01/20 01:51:54;;;;;;;9.30;7.18;;;;;;;-8.71;100.00;95588.16;5073027;28;20146;-48
2022/01/20 01:54:21;;;;;;;13.13;6.38;;;;;;;-8.75;100.00;95581.69;5068395;28;20041;-48
2022/01/20 01:56:49;;;;;;;14.88;7.53;;;;;;;-8.77;100.00;95583.47;5070817;28;20537;-50
2022/01/20 01:59:21;;;;;;;10.88;6.82;;;;;;;-8.77;100.00;95580.94;5065668;28;20430;-48
2022/01/20 02:02:01;;;;;;;13.40;7.22;;;;;;;-8.81;100.00;95576.19;5074600;28;20494;-47
2022/01/20 02:04:33;;;;;;;12.32;5.95;;;;;;;-8.71;100.00;95572.19;5069141;28;20472;-48
2022/01/20 02:07:59;;;;;;;13.23;6.05;;;;;;;-8.62;100.00;95570.78;5058718;28;20049;-48
2022/01/20 02:21:24;;;;;;;19.83;11.63;;;;;;;-8.55;100.00;95561.94;5064430;28;20056;-47
2022/01/20 02:23:55;;;;;;;27.85;15.88;;;;;;;-8.51;100.00;95553.28;5063875;28;20518;-48
2022/01/20 02:26:22;;;;;;;26.00;14.13;;;;;;;-8.47;100.00;95557.22;5064398;28;20057;-48
2022/01/20 02:28:49;;;;;;;23.13;12.30;;;;;;;-8.50;100.00;95549.81;5063450;28;20130;-48
2022/01/20 02:31:20;;;;;;;25.15;8.45;;;;;;;-8.48;100.00;95538.72;5064994;28;20052;-50
2022/01/20 02:33:47;;;;;;;22.33;8.65;;;;;;;-8.56;100.00;95540.91;5064541;28;21757;-49
2022/01/20 02:36:16;;;;;;;15.68;8.25;;;;;;;-8.72;100.00;95541.06;5070290;28;20044;-52
2022/01/20 02:38:51;;;;;;;29.33;11.02;;;;;;;-8.70;100.00;95543.50;5069897;28;20048;-48
2022/01/20 02:47:11;;;;;;;5.90;2.70;;;;;;;-9.04;100.00;95528.72;5063061;28;20124;-49
2022/01/20 02:49:38;;;;;;;11.50;5.90;;;;;;;-9.15;100.00;95533.59;5069102;28;20044;-49
2022/01/20 02:52:06;;;;;;;15.93;9.27;;;;;;;-9.16;100.00;95526.94;5063471;28;20076;-48
2022/01/20 02:54:33;;;;;;;13.30;6.65;;;;;;;-9.22;100.00;95527.31;5065447;28;20551;-49
2022/01/20 02:57:01;;;;;;;14.80;7.15;;;;;;;-9.22;100.00;95527.31;5066178;28;20067;-47
2022/01/20 02:59:28;;;;;;;14.50;8.38;;;;;;;-9.28;100.00;95527.69;5064179;28;20039;-49
2022/01/20 03:01:55;;;;;;;12.80;6.88;;;;;;;-9.26;100.00;95530.91;5078055;28;20044;-48
2022/01/20 03:04:25;;;;;;;13.63;6.65;;;;;;;-9.22;100.00;95527.31;5066089;28;20040;-47
2022/01/20 03:06:56;;;;;;;18.17;7.25;;;;;;;-9.22;100.00;95522.25;5066135;28;20521;-47
2022/01/20 03:09:23;;;;;;;15.02;7.72;;;;;;;-9.29;100.00;95515.97;5063610;28;20091;-48
2022/01/20 03:11:50;;;;;;;11.70;7.28;;;;;;;-9.18;100.00;95518.66;5065791;28;20425;-48
2022/01/20 03:14:17;;;;;;;8.18;5.22;;;;;;;-9.18;100.00;95518.66;5071794;28;20048;-47
2022/01/20 03:16:45;;;;;;;7.72;5.35;;;;;;;-9.20;100.00;95520.47;5064605;28;20398;-47
2022/01/20 03:19:13;;;;;;;9.77;5.45;;;;;;;-9.33;100.00;95501.91;5075734;28;20167;-47
2022/01/20 03:21:41;;;;;;;12.65;7.40;;;;;;;-9.27;100.00;95507.41;5064547;28;20045;-47
2022/01/20 03:24:10;;;;;;;10.48;7.53;;;;;;;-9.32;100.00;95506.06;5065870;28;20052;-47
2022/01/20 03:26:39;;;;;;;13.93;7.45;;;;;;;-9.21;100.00;95502.91;5072964;28;20114;-47
2022/01/20 03:29:09;;;;;;;11.63;7.35;;;;;;;-9.19;100.00;95506.13;5073306;28;20067;-47
2022/01/20 03:31:37;;;;;;;13.18;6.88;;;;;;;-9.16;100.00;95506.75;5074626;28;20039;-48
2022/01/20 03:34:06;;;;;;;9.80;4.75;;;;;;;-9.09;100.00;95507.19;5068012;28;20137;-49
2022/01/20 03:36:36;;;;;;;13.90;6.45;;;;;;;-9.04;100.00;95511.06;5072374;28;20468;-51
2022/01/20 03:39:07;;;;;;;9.50;5.53;;;;;;;-9.05;100.00;95504.38;5068007;28;20524;-48
2022/01/20 03:41:36;;;;;;;10.48;6.22;;;;;;;-8.99;100.00;95507.44;5066451;28;20060;-48
2022/01/20 03:44:11;;;;;;;9.18;6.28;;;;;;;-9.00;100.00;95505.81;5067785;28;20437;-48
2022/01/20 03:46:38;;;;;;;21.20;9.00;;;;;;;-9.07;100.00;95500.34;5068377;28;20052;-48
2022/01/20 03:49:26;;;;;;;13.07;8.45;;;;;;;-9.06;100.00;95500.22;5068675;28;20113;-48
2022/01/20 03:51:54;;;;;;;7.05;4.45;;;;;;;-9.10;100.00;95491.22;5067906;28;20144;-49
2022/01/20 03:54:26;;;;;;;15.60;6.80;;;;;;;-9.06;100.00;95487.59;5066709;28;20044;-48
2022/01/20 03:57:12;;;;;;;9.05;5.30;;;;;;;-9.05;100.00;95494.28;5078154;28;20041;-47
2022/01/20 03:59:54;;;;;;;10.90;5.95;;;;;;;-8.98;100.00;95496.41;5069575;28;20188;-50
2022/01/20 04:02:40;;;;;;;9.55;5.15;;;;;;;-9.13;100.00;95491.41;5076565;28;20120;-48
2022/01/20 04:05:25;;;;;;;9.80;4.30;;;;;;;-9.15;100.00;95503.31;5067350;28;20135;-47
2022/01/20 04:08:08;;;;;;;10.18;5.47;;;;;;;-9.12;100.00;95495.56;5066942;28;20044;-48
2022/01/20 04:10:35;;;;;;;13.65;7.35;;;;;;;-9.17;100.00;95492.50;5068957;28;20051;-47
2022/01/20 04:13:02;;;;;;;13.15;7.30;;;;;;;-9.21;100.00;95498.66;5066226;28;20060;-50
2022/01/20 04:15:37;;;;;;;14.43;8.88;;;;;;;-9.24;100.00;95488.75;5067060;28;20429;-47
2022/01/20 04:18:06;;;;;;;20.08;8.18;;;;;;;-9.30;100.00;95484.88;5069760;28;20058;-48
2022/01/20 04:20:33;;;;;;;23.30;9.05;;;;;;;-9.34;100.00;95477.63;5086985;28;20036;-48
2022/01/20 04:23:00;;;;;;;14.05;5.97;;;;;;;-9.15;100.00;95497.47;5067493;28;20040;-48
2022/01/20 04:25:27;;;;;;;8.60;5.68;;;;;;;-9.16;100.00;95496.66;5069772;28;20128;-47
2022/01/20 04:27:54;;;;;;;10.02;5.20;;;;;;;-9.14;100.00;95494.84;5065231;28;20050;-47
2022/01/20 04:30:21;;;;;;;9.20;5.68;;;;;;;-9.12;100.00;95503.13;5068359;28;20128;-47
2022/01/20 04:32:48;;;;;;;12.63;6.22;;;;;;;-9.22;100.00;95494.50;5066825;28;20048;-48
2022/01/20 04:35:19;;;;;;;15.40;6.93;;;;;;;-9.16;100.00;95491.63;5074824;28;20510;-48
2022/01/20 04:37:48;;;;;;;18.05;8.25;;;;;;;-9.20;100.00;95485.16;5065453;28;20040;-47
2022/01/20 04:40:16;;;;;;;10.82;6.43;;;;;;;-9.13;100.00;95481.31;5070214;28;20048;-47
2022/01/20 04:42:45;;;;;;;13.68;6.93;;;;;;;-9.12;100.00;95485.47;5066909;28;20072;-47
2022/01/20 04:45:18;;;;;;;13.68;7.45;;;;;;;-9.16;100.00;95491.63;5065939;28;20123;-49
2022/01/20 04:48:18;;;;;;;12.07;6.45;;;;;;;-9.08;100.00;95489.41;5083974;28;20134;-50
2022/01/20 04:58:51;;;;;;;15.02;9.38;;;;;;;-9.00;100.00;95485.63;5068706;28;20048;-48
2022/01/20 05:01:18;;;;;;;15.57;8.85;;;;;;;-9.08;100.00;95483.56;5066392;28;20107;-47
2022/01/20 05:04:04;;;;;;;9.77;5.47;;;;;;;-9.09;100.00;95482.78;5066431;28;20132;-48
2022/01/20 05:06:52;;;;;;;12.98;6.28;;;;;;;-9.09;100.00;95487.81;5065992;28;20528;-49
2022/01/20 05:09:21;;;;;;;11.00;7.22;;;;;;;-9.07;100.00;95493.56;5066366;28;20045;-48
2022/01/20 05:11:58;;;;;;;13.85;6.53;;;;;;;-9.17;100.00;95490.00;5065837;28;20052;-49
2022/01/20 05:14:26;;;;;;;15.63;6.53;;;;;;;-9.21;100.00;95495.34;5097428;28;20561;-50
2022/01/20 05:16:55;;;;;;;17.50;6.90;;;;;;;-9.19;100.00;95491.81;5064028;28;20037;-48
2022/01/20 05:19:23;;;;;;;11.98;5.55;;;;;;;-9.18;100.00;95493.44;5065558;28;20132;-48
2022/01/20 05:21:51;;;;;;;10.55;5.60;;;;;;;-9.16;100.00;95484.06;5064577;28;20459;-48
2022/01/20 05:24:25;;;;;;;12.07;6.37;;;;;;;-9.06;100.00;95497.69;5063639;28;20699;-47
2022/01/20 05:26:55;;;;;;;11.20;6.68;;;;;;;-9.10;100.00;95481.13;5068397;28;20048;-48
2022/01/20 05:29:23;;;;;;;19.10;7.22;;;;;;;-9.08;100.00;95479.31;5067643;28;20040;-47
2022/01/20 05:31:51;;;;;;;16.92;9.30;;;;;;;-9.02;100.00;95482.38;5065552;28;20127;-47
2022/01/20 05:34:19;;;;;;;9.50;6.82;;;;;;;-8.98;100.00;95479.56;5067421;28;20172;-48
2022/01/20 05:36:48;;;;;;;10.15;6.47;;;;;;;-9.02;100.00;95484.91;5066233;28;20131;-48
2022/01/20 05:39:16;;;;;;;18.63;8.25;;;;;;;-9.06;100.00;95480.03;5064824;28;20470;-48
2022/01/20 05:41:44;;;;;;;19.05;11.18;;;;;;;-8.98;100.00;95478.75;5066602;28;20102;-47
2022/01/20 05:44:26;;;;;;;13.65;7.82;;;;;;;-8.89;100.00;95488.31;5064213;28;20588;-49
2022/01/20 05:46:53;;;;;;;18.77;9.68;;;;;;;-8.92;100.00;95485.97;5065095;28;20544;-47
2022/01/20 05:49:39;;;;;;;15.68;7.60;;;;;;;-8.91;100.00;95490.09;5065750;28;20509;-48
2022/01/20 05:52:08;;;;;;;21.20;8.43;;;;;;;-8.93;100.00;95486.84;5063562;28;20052;-48
2022/01/20 05:54:35;;;;;;;12.35;8.00;;;;;;;-9.02;100.00;95487.44;5062762;28;20074;-50
2022/01/20 05:57:03;;;;;;;14.10;9.63;;;;;;;-9.08;100.00;95479.31;5071467;28;20044;-49
2022/01/20 05:59:33;;;;;;;15.32;8.98;;;;;;;-9.10;100.00;95490.44;5083259;28;20116;-48
2022/01/20 06:02:09;;;;;;;15.00;8.02;;;;;;;-9.12;100.00;95492.25;5068115;28;20040;-48
2022/01/20 06:04:37;;;;;;;17.58;7.45;;;;;;;-9.16;100.00;95486.56;5069373;28;20047;-49
2022/01/20 06:07:04;;;;;;;12.50;5.45;;;;;;;-9.19;100.00;95486.75;5074067;28;20048;-47
2022/01/20 06:09:31;;;;;;;25.77;9.50;;;;;;;-9.21;100.00;95483.53;5064029;28;20084;-48
2022/01/20 06:11:58;;;;;;;16.08;6.93;;;;;;;-9.17;100.00;95474.84;5063960;28;20182;-49
2022/01/20 06:14:28;;;;;;;22.35;9.45;;;;;;;-9.08;100.00;95479.31;5062059;28;20568;-48
2022/01/20 06:16:55;;;;;;;14.27;8.20;;;;;;;-9.03;100.00;95476.53;5063960;28;20055;-49
2022/01/20 06:19:24;;;;;;;16.25;8.65;;;;;;;-8.92;100.00;95473.34;5064159;28;20048;-48
2022/01/20 06:21:51;;;;;;;14.15;9.13;;;;;;;-8.73;100.00;95483.91;5082925;28;20051;-47
2022/01/20 06:24:19;;;;;;;30.83;12.32;;;;;;;-8.62;100.00;95484.91;5071253;28;20094;-50
2022/01/20 06:26:46;;;;;;;25.25;13.57;;;;;;;-8.55;100.00;95481.09;5070981;28;20470;-51
2022/01/20 06:29:13;;;;;;;26.58;12.88;;;;;;;-8.49;100.00;95480.72;5070124;28;20427;-47
2022/01/20 06:31:40;;;;;;;24.10;12.10;;;;;;;-8.39;100.00;95485.94;5075411;28;20572;-48
2022/01/20 06:34:09;;;;;;;48.17;22.95;;;;;;;-8.29;100.00;95472.63;5070154;28;20043;-48
2022/01/20 06:36:37;;;;;;;31.20;14.82;;;;;;;-8.17;100.00;95482.88;5062705;28;20547;-47
2022/01/20 06:39:04;;;;;;;21.73;12.63;;;;;;;-8.10;100.00;95481.56;5064646;28;20067;-48
2022/01/20 06:41:38;;;;;;;30.40;15.15;;;;;;;-7.96;100.00;95478.94;5059918;28;20055;-46
2022/01/20 06:44:05;;;;;;;28.90;14.73;;;;;;;-7.84;100.00;95481.53;5060103;28;20648;-47
2022/01/20 06:46:32;;;;;;;34.30;18.00;;;;;;;-7.75;100.00;95486.00;5060524;28;20048;-47
2022/01/20 06:49:06;;;;;;;34.85;15.45;;;;;;;-7.61;100.00;95485.88;5059868;28;20126;-47
2022/01/20 06:51:57;;;;;;;30.42;14.00;;;;;;;-7.39;100.00;95471.75;5057020;28;20098;-48
2022/01/20 06:54:24;;;;;;;62.38;25.08;;;;;;;-7.33;100.00;95466.25;5069387;28;20067;-47
2022/01/20 06:56:51;;;;;;;157.80;44.95;;;;;;;-7.17;100.00;95466.81;5095918;27;20052;-47
2022/01/20 06:59:19;;;;;;;128.80;49.03;;;;;;;-7.01;100.00;95475.91;5059253;28;20055;-46
2022/01/20 07:01:48;;;;;;;118.70;37.42;;;;;;;-6.80;100.00;95479.47;5060393;28;20057;-47
2022/01/20 07:04:23;;;;;;;62.65;25.25;;;;;;;-6.61;100.00;95483.22;5061936;28;20107;-49
2022/01/20 07:06:50;;;;;;;82.50;28.48;;;;;;;-6.52;100.00;95477.47;5060646;28;20471;-46
2022/01/20 07:09:36;;;;;;;69.30;25.15;;;;;;;-6.22;100.00;95483.81;5060561;28;20526;-49
2022/01/20 07:12:12;;;;;;;69.18;25.13;;;;;;;-6.03;100.00;95478.19;5057757;28;20040;-48
2022/01/20 07:14:39;;;;;;;33.60;18.55;;;;;;;-5.89;100.00;95484.75;5058576;28;20052;-48
2022/01/20 07:17:06;;;;;;;39.25;19.45;;;;;;;-5.74;100.00;95488.69;5062648;28;20139;-46
2022/01/20 07:19:35;;;;;;;38.40;18.83;;;;;;;-5.54;100.00;95488.94;5060805;28;20048;-46
2022/01/20 07:22:04;;;;;;;36.28;15.52;;;;;;;-5.44;99.18;95474.59;5061694;28;20044;-48
2022/01/20 07:24:32;;;;;;;38.38;17.30;;;;;;;-5.37;96.75;95470.69;5062765;28;20080;-47
2022/01/20 07:27:09;;;;;;;43.40;17.27;;;;;;;-5.27;95.94;95465.72;5061859;28;20599;-48
2022/01/20 07:29:37;;;;;;;39.53;16.90;;;;;;;-5.14;95.45;95460.50;5080407;28;20048;-47
2022/01/20 07:32:06;;;;;;;33.92;13.82;;;;;;;-4.89;94.34;95470.34;5062030;28;20048;-46
2022/01/20 07:34:34;;;;;;;26.88;11.80;;;;;;;-4.77;94.18;95466.06;5059970;28;20473;-48
2022/01/20 07:37:03;;;;;;;11.88;6.18;;;;;;;-4.64;92.85;95470.97;5064233;28;20044;-48
2022/01/20 07:39:30;;;;;;;27.35;14.18;;;;;;;-4.51;92.62;95463.97;5059469;28;20123;-48
2022/01/20 07:41:57;;;;;;;25.42;12.88;;;;;;;-4.39;93.17;95464.75;5063730;28;20515;-48
2022/01/20 07:44:42;;;;;;;20.60;10.30;;;;;;;-4.29;92.04;95462.25;5065062;28;20051;-47
2022/01/20 07:47:35;;;;;;;15.88;8.25;;;;;;;-4.27;91.63;95466.31;5058947;28;20059;-47
2022/01/20 07:50:03;;;;;;;23.77;11.90;;;;;;;-4.09;91.28;95464.00;5056314;28;20151;-47
2022/01/20 07:52:30;;;;;;;34.70;13.18;;;;;;;-3.90;89.73;95472.69;5055945;28;20114;-48
2022/01/20 07:54:57;;;;;;;32.13;11.13;;;;;;;-3.76;88.16;95468.97;5064709;28;20048;-48
2022/01/20 07:57:24;;;;;;;21.27;9.10;;;;;;;-3.67;86.27;95479.22;5057286;28;20530;-47
2022/01/20 07:59:51;;;;;;;12.68;7.22;;;;;;;-3.73;87.33;95474.63;5071763;28;20167;-51
2022/01/20 08:02:23;;;;;;;23.42;11.15;;;;;;;-3.68;86.16;95472.50;5061751;28;20045;-46
2022/01/20 08:04:50;;;;;;;25.70;12.07;;;;;;;-3.53;86.76;95475.53;5062495;28;20066;-47
2022/01/20 08:07:18;;;;;;;23.60;8.48;;;;;;;-3.41;85.13;95481.31;5066429;28;20651;-47
2022/01/20 08:09:45;;;;;;;18.40;9.23;;;;;;;-3.39;86.00;95482.00;5059826;28;20057;-47
2022/01/20 08:12:21;;;;;;;31.13;10.88;;;;;;;-3.35;86.32;95468.09;5061604;28;20109;-49
2022/01/20 08:15:01;;;;;;;9.27;5.63;;;;;;;-3.31;85.83;95489.81;5060255;28;20136;-47
2022/01/20 08:17:49;;;;;;;25.83;12.48;;;;;;;-3.19;85.89;95482.88;5069439;28;20052;-50
2022/01/20 08:20:16;;;;;;;22.02;8.82;;;;;;;-2.96;86.82;95483.47;5063467;28;20049;-49
2022/01/20 08:22:50;;;;;;;24.57;11.60;;;;;;;-2.62;86.06;95480.56;5067224;28;20106;-51
2022/01/20 08:25:18;;;;;;;24.35;11.55;;;;;;;-2.63;84.24;95468.78;5062849;28;20051;-49
2022/01/20 08:27:47;;;;;;;29.23;13.15;;;;;;;-2.61;84.30;95460.97;5066516;28;20048;-48
2022/01/20 08:30:18;;;;;;;29.35;11.10;;;;;;;-2.66;84.48;95448.63;5065571;28;20536;-47
2022/01/20 08:32:46;;;;;;;24.17;11.48;;;;;;;-2.63;83.57;95458.56;5064851;28;20071;-50
2022/01/20 08:35:23;;;;;;;30.98;14.40;;;;;;;-2.55;83.15;95466.34;5068753;28;20518;-47
2022/01/20 08:37:57;;;;;;;26.92;11.10;;;;;;;-2.43;84.16;95473.84;5062939;28;20049;-48
2022/01/20 08:40:24;;;;;;;25.77;11.80;;;;;;;-2.24;82.67;95473.84;5065107;28;20041;-49
2022/01/20 08:42:55;;;;;;;39.90;15.63;;;;;;;-2.09;80.64;95460.66;5065319;28;20064;-49
2022/01/20 08:45:25;;;;;;;23.30;11.98;;;;;;;-1.99;80.83;95446.94;5070484;28;20047;-50
2022/01/20 08:47:56;;;;;;;38.25;16.92;;;;;;;-1.70;81.24;95458.03;5062815;28;20113;-47
2022/01/20 08:50:33;;;;;;;37.85;15.57;;;;;;;-1.44;80.84;95451.34;5064202;28;20633;-47
2022/01/20 08:53:00;;;;;;;29.42;13.02;;;;;;;-1.32;78.99;95458.81;5063396;28;20044;-48
2022/01/20 08:55:27;;;;;;;33.78;14.38;;;;;;;-1.14;78.63;95464.78;5064698;28;20045;-47
2022/01/20 08:58:02;;;;;;;30.67;12.50;;;;;;;-1.03;75.97;95461.22;5066050;28;20041;-49
2022/01/20 09:00:32;;;;;;;8.57;4.10;;;;;;;-1.03;73.16;95459.44;5067166;28;20111;-50
2022/01/20 09:03:04;;;;;;;23.33;12.02;;;;;;;-0.89;74.56;95462.50;5063743;28;20040;-48
2022/01/20 09:05:32;;;;;;;20.48;9.05;;;;;;;-0.77;73.64;95453.66;5065263;28;20041;-50
2022/01/20 09:08:25;;;;;;;29.55;12.80;;;;;;;-0.71;73.49;95437.72;5061167;28;20059;-48
2022/01/20 09:11:17;;;;;;;20.85;11.77;;;;;;;-0.52;71.26;95446.19;5065072;28;20036;-49
2022/01/20 09:16:30;;;;;;;26.25;12.88;;;;;;;-0.42;69.33;95452.03;5065801;28;20048;-49
2022/01/20 09:19:10;;;;;;;30.80;13.48;;;;;;;-0.37;69.34;95449.84;5062898;28;20044;-51
2022/01/20 09:21:46;;;;;;;32.20;11.45;;;;;;;-0.21;69.68;95444.84;5064577;28;20061;-48
2022/01/20 09:24:13;;;;;;;26.98;11.27;;;;;;;-0.03;68.58;95441.47;5067996;28;20044;-48
2022/01/20 09:26:41;;;;;;;14.20;7.97;;;;;;;0.10;67.67;95441.84;5067228;28;20058;-49
2022/01/20 09:29:08;;;;;;;41.15;14.75;;;;;;;0.26;67.09;95436.03;5062058;28;20139;-48
2022/01/20 09:31:38;;;;;;;31.23;12.13;;;;;;;0.26;67.15;95440.38;5063297;28;20044;-48
2022/01/20 09:34:08;;;;;;;31.85;14.93;;;;;;;0.46;67.96;95436.59;5063549;28;20048;-49
2022/01/20 09:36:37;;;;;;;30.73;14.52;;;;;;;0.45;66.41;95437.59;5069463;28;21550;-48
2022/01/20 09:39:05;;;;;;;33.90;13.55;;;;;;;0.57;66.97;95428.66;5067302;28;20137;-47
2022/01/20 09:41:48;;;;;;;32.67;14.73;;;;;;;0.86;67.07;95422.34;5066718;28;20133;-49
2022/01/20 09:44:16;;;;;;;27.92;14.00;;;;;;;1.03;65.23;95412.16;5064024;28;20076;-48
2022/01/20 09:46:45;;;;;;;30.33;14.85;;;;;;;1.23;65.81;95412.66;5062579;28;20037;-47
2022/01/20 09:49:38;;;;;;;29.23;11.38;;;;;;;1.47;65.28;95399.03;5061645;28;20410;-50
2022/01/20 09:52:13;;;;;;;18.58;10.13;;;;;;;1.52;63.95;95386.53;5063189;28;20044;-47
2022/01/20 09:54:46;;;;;;;28.95;12.85;;;;;;;1.55;63.28;95388.78;5062787;28;20049;-47
2022/01/20 09:57:19;;;;;;;36.58;16.02;;;;;;;1.78;63.34;95385.53;5063610;28;20071;-48
2022/01/20 09:59:46;;;;;;;37.53;15.25;;;;;;;1.82;63.35;95376.53;5062209;28;20494;-47
2022/01/20 10:02:18;;;;;;;38.67;19.55;;;;;;;2.05;64.30;95372.34;5064655;28;20505;-50
2022/01/20 10:04:49;;;;;;;37.25;14.20;;;;;;;2.43;61.52;95364.81;5063075;28;20052;-51
2022/01/20 10:07:31;;;;;;;25.00;12.68;;;;;;;2.48;60.34;95362.56;5066881;28;20072;-48
2022/01/20 10:10:03;;;;;;;9.68;5.75;;;;;;;2.45;59.28;95356.94;5062802;28;20073;-48
2022/01/20 10:13:04;;;;;;;32.97;15.50;;;;;;;2.51;61.68;95350.34;5039057;28;20185;-50
2022/01/20 10:16:07;;;;;;;40.20;15.65;;;;;;;2.94;60.80;95355.91;5065462;28;20087;-51
2022/01/20 10:18:57;;;;;;;32.22;12.73;;;;;;;3.22;58.25;95346.69;5062493;28;20046;-47
2022/01/20 10:21:44;;;;;;;26.02;12.43;;;;;;;3.28;57.26;95341.81;5065123;28;20048;-48
2022/01/20 10:24:26;;;;;;;30.63;14.25;;;;;;;3.14;56.09;95341.59;5063515;28;20803;-51
2022/01/20 10:27:11;;;;;;;24.85;12.48;;;;;;;3.51;57.15;95337.47;5068560;28;20063;-51
2022/01/20 10:29:54;;;;;;;27.00;10.82;;;;;;;3.80;54.62;95326.41;5065651;28;20048;-49
2022/01/20 10:32:23;;;;;;;24.30;11.82;;;;;;;4.10;55.16;95320.47;5061784;28;20048;-48
2022/01/20 10:35:02;;;;;;;18.77;10.63;;;;;;;4.20;53.36;95318.41;5066096;28;20465;-49
2022/01/20 10:37:32;;;;;;;24.27;11.27;;;;;;;4.47;52.43;95321.31;5065675;28;20060;-49
2022/01/20 10:40:09;;;;;;;20.23;9.48;;;;;;;4.48;51.96;95317.75;5061429;28;20438;-47
2022/01/20 10:42:41;;;;;;;23.60;9.68;;;;;;;4.15;51.60;95302.69;5061790;28;20048;-51
2022/01/20 10:45:18;;;;;;;26.13;9.50;;;;;;;4.37;51.36;95306.91;5060689;28;20044;-48
2022/01/20 10:47:49;;;;;;;18.38;9.55;;;;;;;4.50;49.16;95310.63;5061142;28;20561;-47
2022/01/20 10:50:23;;;;;;;19.40;9.65;;;;;;;4.77;48.48;95302.22;5061448;28;20044;-47
2022/01/20 10:52:58;;;;;;;16.17;8.20;;;;;;;4.94;48.35;95281.31;5065621;28;20052;-49
2022/01/20 10:55:31;;;;;;;15.02;8.00;;;;;;;5.17;47.06;95287.09;5061074;28;20040;-48
2022/01/20 10:58:22;;;;;;;20.20;8.23;;;;;;;5.58;45.71;95282.22;5065784;28;20060;-48
2022/01/20 11:00:55;;;;;;;17.42;8.52;;;;;;;5.84;44.05;95272.06;5063298;28;20052;-48
2022/01/20 11:03:31;;;;;;;20.70;6.55;;;;;;;5.99;43.51;95266.81;5061259;28;20513;-48
2022/01/20 11:05:59;;;;;;;12.63;6.78;;;;;;;6.09;43.19;95261.31;5065016;28;20097;-48
2022/01/20 11:08:47;;;;;;;6.43;3.60;;;;;;;6.21;38.27;95257.19;5067477;28;21401;-47
2022/01/20 11:11:21;;;;;;;8.02;3.65;;;;;;;6.34;36.55;95245.25;5061266;28;20036;-47
2022/01/20 11:14:17;;;;;;;2.95;1.67;;;;;;;6.40;34.69;95247.09;5064034;28;20060;-48
2022/01/20 11:16:44;;;;;;;5.00;2.72;;;;;;;6.47;35.06;95242.72;5059750;28;20048;-48
2022/01/20 11:19:20;;;;;;;5.28;2.33;;;;;;;6.55;32.63;95252.91;5064445;28;20498;-47
2022/01/20 11:21:48;;;;;;;4.78;2.17;;;;;;;6.35;33.24;95228.75;5061584;28;20064;-48
2022/01/20 11:24:20;;;;;;;2.58;1.20;;;;;;;6.39;34.17;95232.53;5065083;28;20052;-48
2022/01/20 11:27:02;;;;;;;;;;;;;;;6.30;34.26;95219.81;5063025;28;20048;-49
2022/01/20 11:30:01;;;;;;;1.95;1.20;;;;;;;6.49;35.90;95212.28;5056482;28;20014;-47
2022/01/20 11:32:35;;;;;;;2.95;2.08;;;;;;;6.54;35.09;95204.72;5061054;28;20152;-47
2022/01/20 11:35:13;;;;;;;3.13;1.88;;;;;;;6.75;35.24;95210.72;5055218;28;20536;-50
2022/01/20 11:37:42;;;;;;;2.28;1.58;;;;;;;6.84;35.10;95209.53;5064889;28;20051;-48
2022/01/20 11:40:21;;;;;;;3.30;1.13;;;;;;;6.76;35.06;95201.97;5065439;28;20053;-47
2022/01/20 11:43:10;;;;;;;5.10;2.25;;;;;;;6.77;34.44;95203.56;5066620;28;20050;-48
2022/01/20 11:45:46;;;;;;;10.48;5.30;;;;;;;6.84;34.45;95214.72;5068343;28;20044;-51
2022/01/20 11:48:18;;;;;;;10.23;4.82;;;;;;;6.87;34.37;95209.16;5071812;28;20216;-47
2022/01/20 11:50:47;;;;;;;6.00;3.65;;;;;;;6.94;34.77;95204.78;5066601;28;20052;-47
2022/01/20 11:53:17;;;;;;;6.70;2.78;;;;;;;7.00;34.58;95214.34;5065095;28;20045;-49
2022/01/20 11:55:51;;;;;;;4.70;2.30;;;;;;;7.02;34.52;95196.81;5071167;28;20040;-48
2022/01/20 11:58:25;;;;;;;8.70;4.07;;;;;;;7.16;34.47;95191.63;5068630;28;20441;-51
2022/01/20 12:01:06;;;;;;;10.13;2.42;;;;;;;7.23;34.69;95207.97;5070522;28;20456;-50
2022/01/20 12:03:48;;;;;;;3.65;1.98;;;;;;;7.31;33.54;95215.53;5064582;28;20057;-48
2022/01/20 12:06:23;;;;;;;3.22;2.15;;;;;;;7.23;34.13;95213.16;5063663;28;20522;-48
2022/01/20 12:09:01;;;;;;;3.60;1.85;;;;;;;7.26;34.29;95192.03;5066218;28;20824;-49
2022/01/20 12:11:41;;;;;;;4.85;2.45;;;;;;;7.31;34.75;95200.00;5061116;28;20496;-49
2022/01/20 12:14:09;;;;;;;3.70;1.30;;;;;;;7.28;34.42;95202.97;5061236;28;20053;-48
2022/01/20 12:16:37;;;;;;;4.78;2.30;;;;;;;7.27;34.40;95206.56;5062002;28;20044;-49
2022/01/20 12:19:08;;;;;;;4.53;2.28;;;;;;;7.39;34.88;95204.97;5064786;28;20040;-48
2022/01/20 12:21:37;;;;;;;4.47;1.77;;;;;;;7.40;34.59;95197.97;5061059;28;20047;-48
2022/01/20 12:24:05;;;;;;;5.82;2.05;;;;;;;7.30;35.00;95193.22;5058207;28;20458;-48
2022/01/20 12:26:34;;;;;;;3.60;1.90;;;;;;;7.37;34.48;95199.19;5059910;28;20049;-48
2022/01/20 12:29:06;;;;;;;3.97;1.95;;;;;;;7.36;34.25;95189.81;5060643;28;20056;-48
2022/01/20 12:31:54;;;;;;;5.38;2.40;;;;;;;7.51;34.53;95188.78;5061329;28;20043;-47
2022/01/20 12:34:21;;;;;;;3.40;1.80;;;;;;;7.71;35.08;95184.38;5058212;28;20411;-48
2022/01/20 12:36:51;;;;;;;2.72;1.38;;;;;;;7.85;34.87;95185.13;5059257;28;20789;-49
2022/01/20 12:39:28;;;;;;;6.57;2.13;;;;;;;8.11;34.53;95181.63;5063563;28;20055;-48
2022/01/20 12:41:57;;;;;;;5.00;2.97;;;;;;;8.25;34.38;95203.13;5062332;28;20136;-48
2022/01/20 12:44:36;;;;;;;5.43;1.60;;;;;;;8.24;34.07;95193.75;5064117;28;20048;-48
2022/01/20 12:47:02;;;;;;;4.82;2.35;;;;;;;8.34;34.08;95182.94;5059936;28;20481;-53